Terminal Aerodrome Forecast
Issued by NWS

Home | Current Version | Previous Version | Graphics & Text | Print | Product List | Glossary On
Versions: 1 2 3 4 5 6 7 8 9 10 11 12 13 14 15 16 17 18 19 20 21 22 23 24 25 26 27 28 29 30 31 32 33
000
FTUS43 KLOT 222335
TAFORD
TAF
KORD 222335Z 2300/2406 29008KT P6SM FEW040 SCT250
     FM230130 12006KT P6SM FEW040 SCT250
     FM230400 00000KT 6SM BR FEW015 SCT250
     FM231500 12005KT P6SM SCT040
     FM232100 09008KT P6SM SCT050 BKN250=

USA.gov is the U.S. government's official web portal to all federal, state and local government web resources and services.